sensor_id;sensor_type;location;lat;lon;timestamp;P1;durP1;ratioP1;P2;durP2;ratioP2
12635;SDS011;6383;50.830;7.210;2022-07-04T00:00:03;8.15;;;1.67;;
12635;SDS011;6383;50.830;7.210;2022-07-04T00:02:32;3.22;;;1.10;;
12635;SDS011;6383;50.830;7.210;2022-07-04T00:05:00;4.97;;;1.50;;
12635;SDS011;6383;50.830;7.210;2022-07-04T00:07:28;4.22;;;1.30;;
12635;SDS011;6383;50.830;7.210;2022-07-04T00:09:57;3.20;;;1.00;;
12635;SDS011;6383;50.830;7.210;2022-07-04T00:12:26;3.20;;;1.48;;
12635;SDS011;6383;50.830;7.210;2022-07-04T00:14:54;2.53;;;1.20;;
12635;SDS011;6383;50.830;7.210;2022-07-04T00:17:22;2.45;;;0.93;;
12635;SDS011;6383;50.830;7.210;2022-07-04T00:19:50;1.30;;;0.93;;
12635;SDS011;6383;50.830;7.210;2022-07-04T00:22:18;2.97;;;1.00;;
12635;SDS011;6383;50.830;7.210;2022-07-04T00:24:46;0.63;;;0.63;;
12635;SDS011;6383;50.830;7.210;2022-07-04T00:27:15;2.38;;;0.80;;
12635;SDS011;6383;50.830;7.210;2022-07-04T00:29:44;1.10;;;0.70;;
12635;SDS011;6383;50.830;7.210;2022-07-04T00:32:12;2.65;;;0.80;;
12635;SDS011;6383;50.830;7.210;2022-07-04T00:34:40;2.97;;;1.20;;
12635;SDS011;6383;50.830;7.210;2022-07-04T00:37:08;1.98;;;1.02;;
12635;SDS011;6383;50.830;7.210;2022-07-04T00:39:36;2.97;;;0.90;;
12635;SDS011;6383;50.830;7.210;2022-07-04T00:42:04;2.70;;;1.25;;
12635;SDS011;6383;50.830;7.210;2022-07-04T00:44:33;1.25;;;0.98;;
12635;SDS011;6383;50.830;7.210;2022-07-04T00:47:02;2.85;;;1.08;;
12635;SDS011;6383;50.830;7.210;2022-07-04T00:49:30;1.60;;;1.10;;
12635;SDS011;6383;50.830;7.210;2022-07-04T00:51:58;2.28;;;1.33;;
12635;SDS011;6383;50.830;7.210;2022-07-04T00:54:27;5.60;;;1.25;;
12635;SDS011;6383;50.830;7.210;2022-07-04T00:56:56;2.30;;;1.25;;
12635;SDS011;6383;50.830;7.210;2022-07-04T00:59:24;1.83;;;1.00;;
12635;SDS011;6383;50.830;7.210;2022-07-04T01:01:53;2.30;;;1.25;;
12635;SDS011;6383;50.830;7.210;2022-07-04T01:04:22;1.20;;;0.80;;
12635;SDS011;6383;50.830;7.210;2022-07-04T01:06:50;3.72;;;1.85;;
12635;SDS011;6383;50.830;7.210;2022-07-04T01:09:18;2.38;;;0.77;;
12635;SDS011;6383;50.830;7.210;2022-07-04T01:11:48;3.33;;;1.27;;
12635;SDS011;6383;50.830;7.210;2022-07-04T01:14:16;2.30;;;1.10;;
12635;SDS011;6383;50.830;7.210;2022-07-04T01:16:44;2.13;;;1.00;;
12635;SDS011;6383;50.830;7.210;2022-07-04T01:19:13;1.38;;;0.90;;
12635;SDS011;6383;50.830;7.210;2022-07-04T01:21:41;4.82;;;1.00;;
12635;SDS011;6383;50.830;7.210;2022-07-04T01:24:10;2.53;;;1.48;;
12635;SDS011;6383;50.830;7.210;2022-07-04T01:26:38;1.15;;;1.05;;
12635;SDS011;6383;50.830;7.210;2022-07-04T01:29:06;4.03;;;1.42;;
12635;SDS011;6383;50.830;7.210;2022-07-04T01:31:34;2.88;;;1.42;;
12635;SDS011;6383;50.830;7.210;2022-07-04T01:34:02;3.60;;;1.40;;
12635;SDS011;6383;50.830;7.210;2022-07-04T01:36:30;3.15;;;1.23;;
12635;SDS011;6383;50.830;7.210;2022-07-04T01:39:00;1.33;;;1.13;;
12635;SDS011;6383;50.830;7.210;2022-07-04T01:41:32;2.65;;;1.20;;
12635;SDS011;6383;50.830;7.210;2022-07-04T01:44:00;3.90;;;0.88;;
12635;SDS011;6383;50.830;7.210;2022-07-04T01:46:28;2.75;;;1.00;;
12635;SDS011;6383;50.830;7.210;2022-07-04T01:48:56;4.30;;;1.00;;
12635;SDS011;6383;50.830;7.210;2022-07-04T01:51:24;3.28;;;0.98;;
12635;SDS011;6383;50.830;7.210;2022-07-04T01:53:52;5.88;;;1.50;;
12635;SDS011;6383;50.830;7.210;2022-07-04T01:56:21;2.10;;;1.50;;
12635;SDS011;6383;50.830;7.210;2022-07-04T01:58:48;4.18;;;1.20;;
12635;SDS011;6383;50.830;7.210;2022-07-04T02:01:16;1.85;;;0.90;;
12635;SDS011;6383;50.830;7.210;2022-07-04T02:03:58;4.40;;;1.20;;
12635;SDS011;6383;50.830;7.210;2022-07-04T02:06:26;2.92;;;1.02;;
12635;SDS011;6383;50.830;7.210;2022-07-04T02:08:54;1.02;;;0.90;;
12635;SDS011;6383;50.830;7.210;2022-07-04T02:11:41;4.60;;;0.93;;
12635;SDS011;6383;50.830;7.210;2022-07-04T02:14:28;3.67;;;0.98;;
12635;SDS011;6383;50.830;7.210;2022-07-04T02:16:56;3.15;;;0.95;;
12635;SDS011;6383;50.830;7.210;2022-07-04T02:19:24;3.92;;;0.90;;
12635;SDS011;6383;50.830;7.210;2022-07-04T02:21:52;1.35;;;1.10;;
12635;SDS011;6383;50.830;7.210;2022-07-04T02:24:20;2.08;;;1.13;;
12635;SDS011;6383;50.830;7.210;2022-07-04T02:26:49;4.03;;;1.10;;
12635;SDS011;6383;50.830;7.210;2022-07-04T02:29:16;2.35;;;0.98;;
12635;SDS011;6383;50.830;7.210;2022-07-04T02:31:44;1.45;;;1.10;;
12635;SDS011;6383;50.830;7.210;2022-07-04T02:34:12;1.80;;;1.30;;
12635;SDS011;6383;50.830;7.210;2022-07-04T02:36:40;3.95;;;1.10;;
12635;SDS011;6383;50.830;7.210;2022-07-04T02:39:08;1.67;;;0.98;;
12635;SDS011;6383;50.830;7.210;2022-07-04T02:41:36;3.42;;;1.30;;
12635;SDS011;6383;50.830;7.210;2022-07-04T02:44:05;4.32;;;1.17;;
12635;SDS011;6383;50.830;7.210;2022-07-04T02:46:34;1.63;;;1.02;;
12635;SDS011;6383;50.830;7.210;2022-07-04T02:49:02;1.10;;;0.98;;
12635;SDS011;6383;50.830;7.210;2022-07-04T02:51:30;4.05;;;1.08;;
12635;SDS011;6383;50.830;7.210;2022-07-04T02:53:58;2.63;;;1.20;;
12635;SDS011;6383;50.830;7.210;2022-07-04T02:56:26;1.35;;;1.05;;
12635;SDS011;6383;50.830;7.210;2022-07-04T02:58:54;6.38;;;1.02;;
12635;SDS011;6383;50.830;7.210;2022-07-04T03:01:23;3.65;;;1.02;;
12635;SDS011;6383;50.830;7.210;2022-07-04T03:03:50;3.00;;;0.95;;
12635;SDS011;6383;50.830;7.210;2022-07-04T03:06:18;2.10;;;1.00;;
12635;SDS011;6383;50.830;7.210;2022-07-04T03:08:46;5.35;;;2.33;;
12635;SDS011;6383;50.830;7.210;2022-07-04T03:11:14;1.83;;;1.30;;
12635;SDS011;6383;50.830;7.210;2022-07-04T03:13:42;3.55;;;1.00;;
12635;SDS011;6383;50.830;7.210;2022-07-04T03:16:10;2.25;;;0.90;;
12635;SDS011;6383;50.830;7.210;2022-07-04T03:18:39;2.15;;;1.00;;
12635;SDS011;6383;50.830;7.210;2022-07-04T03:21:08;0.77;;;0.77;;
12635;SDS011;6383;50.830;7.210;2022-07-04T03:23:36;1.88;;;1.10;;
12635;SDS011;6383;50.830;7.210;2022-07-04T03:26:04;2.45;;;1.10;;
12635;SDS011;6383;50.830;7.210;2022-07-04T03:28:32;4.90;;;1.50;;
12635;SDS011;6383;50.830;7.210;2022-07-04T03:31:00;0.93;;;0.93;;
12635;SDS011;6383;50.830;7.210;2022-07-04T03:33:28;3.58;;;1.17;;
12635;SDS011;6383;50.830;7.210;2022-07-04T03:35:57;1.33;;;1.10;;
12635;SDS011;6383;50.830;7.210;2022-07-04T03:38:24;2.47;;;1.10;;
12635;SDS011;6383;50.830;7.210;2022-07-04T03:40:52;1.20;;;1.10;;
12635;SDS011;6383;50.830;7.210;2022-07-04T03:43:20;1.33;;;0.98;;
12635;SDS011;6383;50.830;7.210;2022-07-04T03:45:50;2.38;;;1.35;;
12635;SDS011;6383;50.830;7.210;2022-07-04T03:48:18;2.35;;;1.00;;
12635;SDS011;6383;50.830;7.210;2022-07-04T03:50:46;2.15;;;1.17;;
12635;SDS011;6383;50.830;7.210;2022-07-04T03:53:15;1.25;;;1.00;;
12635;SDS011;6383;50.830;7.210;2022-07-04T03:55:42;0.98;;;0.98;;
12635;SDS011;6383;50.830;7.210;2022-07-04T03:58:10;2.60;;;1.30;;
12635;SDS011;6383;50.830;7.210;2022-07-04T04:00:38;1.00;;;0.90;;
12635;SDS011;6383;50.830;7.210;2022-07-04T04:03:06;2.10;;;1.38;;
12635;SDS011;6383;50.830;7.210;2022-07-04T04:05:54;3.08;;;1.27;;
12635;SDS011;6383;50.830;7.210;2022-07-04T04:08:21;3.08;;;1.00;;
12635;SDS011;6383;50.830;7.210;2022-07-04T04:10:50;2.30;;;1.38;;
12635;SDS011;6383;50.830;7.210;2022-07-04T04:13:18;7.25;;;1.45;;
12635;SDS011;6383;50.830;7.210;2022-07-04T04:15:46;1.30;;;1.20;;
12635;SDS011;6383;50.830;7.210;2022-07-04T04:18:14;1.67;;;1.33;;
12635;SDS011;6383;50.830;7.210;2022-07-04T04:20:42;4.95;;;1.15;;
12635;SDS011;6383;50.830;7.210;2022-07-04T04:23:10;2.17;;;1.30;;
12635;SDS011;6383;50.830;7.210;2022-07-04T04:25:39;5.45;;;2.40;;
12635;SDS011;6383;50.830;7.210;2022-07-04T04:28:06;1.50;;;1.38;;
12635;SDS011;6383;50.830;7.210;2022-07-04T04:30:34;12.70;;;2.78;;
12635;SDS011;6383;50.830;7.210;2022-07-04T04:33:02;3.25;;;2.17;;
12635;SDS011;6383;50.830;7.210;2022-07-04T04:35:30;2.78;;;1.10;;
12635;SDS011;6383;50.830;7.210;2022-07-04T04:37:58;1.55;;;1.10;;
12635;SDS011;6383;50.830;7.210;2022-07-04T04:40:26;1.38;;;1.20;;
12635;SDS011;6383;50.830;7.210;2022-07-04T04:42:55;3.42;;;1.20;;
12635;SDS011;6383;50.830;7.210;2022-07-04T04:45:24;2.65;;;1.30;;
12635;SDS011;6383;50.830;7.210;2022-07-04T04:47:52;1.77;;;1.58;;
12635;SDS011;6383;50.830;7.210;2022-07-04T04:50:20;4.45;;;1.42;;
12635;SDS011;6383;50.830;7.210;2022-07-04T04:52:48;1.50;;;1.08;;
12635;SDS011;6383;50.830;7.210;2022-07-04T04:55:16;3.40;;;1.17;;
12635;SDS011;6383;50.830;7.210;2022-07-04T04:57:44;3.30;;;1.20;;
12635;SDS011;6383;50.830;7.210;2022-07-04T05:00:13;2.75;;;1.20;;
12635;SDS011;6383;50.830;7.210;2022-07-04T05:02:42;2.38;;;1.30;;
12635;SDS011;6383;50.830;7.210;2022-07-04T05:05:10;3.63;;;1.90;;
12635;SDS011;6383;50.830;7.210;2022-07-04T05:07:38;2.20;;;1.30;;
12635;SDS011;6383;50.830;7.210;2022-07-04T05:10:06;1.52;;;1.42;;
12635;SDS011;6383;50.830;7.210;2022-07-04T05:12:36;1.65;;;1.20;;
12635;SDS011;6383;50.830;7.210;2022-07-04T05:15:04;2.67;;;1.65;;
12635;SDS011;6383;50.830;7.210;2022-07-04T05:17:33;3.65;;;1.73;;
12635;SDS011;6383;50.830;7.210;2022-07-04T05:20:02;4.70;;;2.45;;
12635;SDS011;6383;50.830;7.210;2022-07-04T05:22:30;5.28;;;2.55;;
12635;SDS011;6383;50.830;7.210;2022-07-04T05:24:58;2.28;;;2.08;;
12635;SDS011;6383;50.830;7.210;2022-07-04T05:27:26;3.30;;;2.20;;
12635;SDS011;6383;50.830;7.210;2022-07-04T05:29:54;2.67;;;2.30;;
12635;SDS011;6383;50.830;7.210;2022-07-04T05:32:22;7.85;;;2.47;;
12635;SDS011;6383;50.830;7.210;2022-07-04T05:34:51;5.80;;;1.75;;
12635;SDS011;6383;50.830;7.210;2022-07-04T05:37:20;4.38;;;1.85;;
12635;SDS011;6383;50.830;7.210;2022-07-04T05:39:48;8.63;;;2.05;;
12635;SDS011;6383;50.830;7.210;2022-07-04T05:42:16;5.43;;;1.48;;
12635;SDS011;6383;50.830;7.210;2022-07-04T05:44:44;4.00;;;1.95;;
12635;SDS011;6383;50.830;7.210;2022-07-04T05:47:12;2.63;;;1.45;;
12635;SDS011;6383;50.830;7.210;2022-07-04T05:49:40;4.55;;;2.10;;
12635;SDS011;6383;50.830;7.210;2022-07-04T05:52:09;6.63;;;1.73;;
12635;SDS011;6383;50.830;7.210;2022-07-04T05:54:36;7.88;;;2.15;;
12635;SDS011;6383;50.830;7.210;2022-07-04T05:57:04;7.90;;;2.20;;
12635;SDS011;6383;50.830;7.210;2022-07-04T05:59:32;3.47;;;2.25;;
12635;SDS011;6383;50.830;7.210;2022-07-04T06:02:00;3.92;;;1.88;;
12635;SDS011;6383;50.830;7.210;2022-07-04T06:04:28;3.45;;;1.85;;
12635;SDS011;6383;50.830;7.210;2022-07-04T06:06:56;4.95;;;1.73;;
12635;SDS011;6383;50.830;7.210;2022-07-04T06:09:25;2.83;;;1.85;;
12635;SDS011;6383;50.830;7.210;2022-07-04T06:11:52;4.65;;;2.00;;
12635;SDS011;6383;50.830;7.210;2022-07-04T06:14:20;6.68;;;2.25;;
12635;SDS011;6383;50.830;7.210;2022-07-04T06:16:48;3.08;;;2.20;;
12635;SDS011;6383;50.830;7.210;2022-07-04T06:19:16;8.02;;;2.40;;
12635;SDS011;6383;50.830;7.210;2022-07-04T06:21:44;5.03;;;2.25;;
12635;SDS011;6383;50.830;7.210;2022-07-04T06:24:12;3.33;;;1.80;;
12635;SDS011;6383;50.830;7.210;2022-07-04T06:26:41;9.68;;;2.45;;
12635;SDS011;6383;50.830;7.210;2022-07-04T06:29:10;4.60;;;2.38;;
12635;SDS011;6383;50.830;7.210;2022-07-04T06:31:38;4.93;;;2.60;;
12635;SDS011;6383;50.830;7.210;2022-07-04T06:34:06;5.05;;;2.25;;
12635;SDS011;6383;50.830;7.210;2022-07-04T06:37:00;5.50;;;2.20;;
12635;SDS011;6383;50.830;7.210;2022-07-04T06:39:28;6.70;;;2.17;;
12635;SDS011;6383;50.830;7.210;2022-07-04T06:41:57;4.57;;;2.33;;
12635;SDS011;6383;50.830;7.210;2022-07-04T06:44:24;8.43;;;2.08;;
12635;SDS011;6383;50.830;7.210;2022-07-04T06:46:52;6.13;;;2.55;;
12635;SDS011;6383;50.830;7.210;2022-07-04T06:49:20;4.50;;;1.98;;
12635;SDS011;6383;50.830;7.210;2022-07-04T06:51:48;4.28;;;2.15;;
12635;SDS011;6383;50.830;7.210;2022-07-04T06:54:16;6.60;;;2.22;;
12635;SDS011;6383;50.830;7.210;2022-07-04T06:56:44;5.25;;;1.70;;
12635;SDS011;6383;50.830;7.210;2022-07-04T06:59:13;5.10;;;1.92;;
12635;SDS011;6383;50.830;7.210;2022-07-04T07:01:40;9.88;;;2.25;;
12635;SDS011;6383;50.830;7.210;2022-07-04T07:04:08;5.60;;;1.80;;
12635;SDS011;6383;50.830;7.210;2022-07-04T07:06:36;7.15;;;2.20;;
12635;SDS011;6383;50.830;7.210;2022-07-04T07:09:04;3.13;;;2.05;;
12635;SDS011;6383;50.830;7.210;2022-07-04T07:11:32;3.75;;;2.10;;
12635;SDS011;6383;50.830;7.210;2022-07-04T07:14:00;3.70;;;1.75;;
12635;SDS011;6383;50.830;7.210;2022-07-04T07:16:29;1.60;;;1.50;;
12635;SDS011;6383;50.830;7.210;2022-07-04T07:18:56;3.88;;;1.58;;
12635;SDS011;6383;50.830;7.210;2022-07-04T07:21:24;8.15;;;2.13;;
12635;SDS011;6383;50.830;7.210;2022-07-04T07:23:52;5.68;;;1.88;;
12635;SDS011;6383;50.830;7.210;2022-07-04T07:26:20;4.57;;;1.52;;
12635;SDS011;6383;50.830;7.210;2022-07-04T07:28:48;10.55;;;1.60;;
12635;SDS011;6383;50.830;7.210;2022-07-04T07:31:16;9.85;;;2.22;;
12635;SDS011;6383;50.830;7.210;2022-07-04T07:33:45;7.32;;;2.03;;
12635;SDS011;6383;50.830;7.210;2022-07-04T07:36:12;2.92;;;0.90;;
12635;SDS011;6383;50.830;7.210;2022-07-04T07:38:40;1.52;;;1.23;;
12635;SDS011;6383;50.830;7.210;2022-07-04T07:41:08;5.03;;;1.95;;
12635;SDS011;6383;50.830;7.210;2022-07-04T07:43:36;4.20;;;1.70;;
12635;SDS011;6383;50.830;7.210;2022-07-04T07:46:04;8.70;;;1.38;;
12635;SDS011;6383;50.830;7.210;2022-07-04T07:48:32;6.30;;;1.40;;
12635;SDS011;6383;50.830;7.210;2022-07-04T07:51:01;4.45;;;1.30;;
12635;SDS011;6383;50.830;7.210;2022-07-04T07:53:30;5.43;;;2.17;;
12635;SDS011;6383;50.830;7.210;2022-07-04T07:55:58;7.53;;;2.00;;
12635;SDS011;6383;50.830;7.210;2022-07-04T07:58:26;2.70;;;1.13;;
12635;SDS011;6383;50.830;7.210;2022-07-04T08:00:54;2.92;;;1.05;;
12635;SDS011;6383;50.830;7.210;2022-07-04T08:03:24;8.07;;;1.73;;
12635;SDS011;6383;50.830;7.210;2022-07-04T08:06:11;3.42;;;1.05;;
12635;SDS011;6383;50.830;7.210;2022-07-04T08:08:40;4.72;;;1.17;;
12635;SDS011;6383;50.830;7.210;2022-07-04T08:11:08;2.97;;;1.50;;
12635;SDS011;6383;50.830;7.210;2022-07-04T08:13:36;4.00;;;1.30;;
12635;SDS011;6383;50.830;7.210;2022-07-04T08:16:04;3.08;;;1.08;;
12635;SDS011;6383;50.830;7.210;2022-07-04T08:18:32;3.35;;;1.00;;
12635;SDS011;6383;50.830;7.210;2022-07-04T08:21:00;2.15;;;1.02;;
12635;SDS011;6383;50.830;7.210;2022-07-04T08:23:31;4.25;;;1.20;;
12635;SDS011;6383;50.830;7.210;2022-07-04T08:26:00;2.55;;;1.10;;
12635;SDS011;6383;50.830;7.210;2022-07-04T08:28:28;2.38;;;1.10;;
12635;SDS011;6383;50.830;7.210;2022-07-04T08:31:00;1.38;;;0.70;;
12635;SDS011;6383;50.830;7.210;2022-07-04T08:33:28;2.20;;;0.75;;
12635;SDS011;6383;50.830;7.210;2022-07-04T08:35:56;4.35;;;1.02;;
12635;SDS011;6383;50.830;7.210;2022-07-04T08:38:24;4.20;;;1.77;;
12635;SDS011;6383;50.830;7.210;2022-07-04T08:40:55;2.50;;;1.27;;
12635;SDS011;6383;50.830;7.210;2022-07-04T08:43:24;1.92;;;0.95;;
12635;SDS011;6383;50.830;7.210;2022-07-04T08:45:52;2.67;;;1.27;;
12635;SDS011;6383;50.830;7.210;2022-07-04T08:48:21;4.18;;;1.25;;
12635;SDS011;6383;50.830;7.210;2022-07-04T08:50:54;2.47;;;0.98;;
12635;SDS011;6383;50.830;7.210;2022-07-04T08:53:26;3.88;;;1.45;;
12635;SDS011;6383;50.830;7.210;2022-07-04T08:55:57;8.32;;;1.13;;
12635;SDS011;6383;50.830;7.210;2022-07-04T08:58:44;2.05;;;1.55;;
12635;SDS011;6383;50.830;7.210;2022-07-04T09:01:12;3.10;;;1.23;;
12635;SDS011;6383;50.830;7.210;2022-07-04T09:03:42;4.10;;;1.73;;
12635;SDS011;6383;50.830;7.210;2022-07-04T09:06:12;3.90;;;1.20;;
12635;SDS011;6383;50.830;7.210;2022-07-04T09:08:40;5.40;;;1.10;;
12635;SDS011;6383;50.830;7.210;2022-07-04T09:11:09;2.88;;;1.60;;
12635;SDS011;6383;50.830;7.210;2022-07-04T09:13:38;5.07;;;1.05;;
12635;SDS011;6383;50.830;7.210;2022-07-04T09:16:06;3.28;;;0.90;;
12635;SDS011;6383;50.830;7.210;2022-07-04T09:18:35;1.77;;;0.95;;
12635;SDS011;6383;50.830;7.210;2022-07-04T09:21:04;2.47;;;1.10;;
12635;SDS011;6383;50.830;7.210;2022-07-04T09:23:35;1.08;;;0.80;;
12635;SDS011;6383;50.830;7.210;2022-07-04T09:26:12;3.30;;;1.45;;
12635;SDS011;6383;50.830;7.210;2022-07-04T09:28:41;4.35;;;0.90;;
12635;SDS011;6383;50.830;7.210;2022-07-04T09:31:14;4.38;;;1.10;;
12635;SDS011;6383;50.830;7.210;2022-07-04T09:33:49;4.32;;;0.80;;
12635;SDS011;6383;50.830;7.210;2022-07-04T09:36:20;2.00;;;0.77;;
12635;SDS011;6383;50.830;7.210;2022-07-04T09:41:53;2.80;;;0.80;;
12635;SDS011;6383;50.830;7.210;2022-07-04T09:44:23;5.38;;;0.90;;
12635;SDS011;6383;50.830;7.210;2022-07-04T09:46:52;2.22;;;1.00;;
12635;SDS011;6383;50.830;7.210;2022-07-04T09:49:20;3.00;;;1.75;;
12635;SDS011;6383;50.830;7.210;2022-07-04T09:51:48;1.90;;;0.80;;
12635;SDS011;6383;50.830;7.210;2022-07-04T09:54:22;4.00;;;1.13;;
12635;SDS011;6383;50.830;7.210;2022-07-04T09:56:54;1.88;;;1.02;;
12635;SDS011;6383;50.830;7.210;2022-07-04T09:59:22;2.53;;;1.00;;
12635;SDS011;6383;50.830;7.210;2022-07-04T10:02:05;1.55;;;1.15;;
12635;SDS011;6383;50.830;7.210;2022-07-04T10:04:44;3.80;;;1.13;;
12635;SDS011;6383;50.830;7.210;2022-07-04T10:07:12;1.58;;;0.70;;
12635;SDS011;6383;50.830;7.210;2022-07-04T10:09:58;1.20;;;0.90;;
12635;SDS011;6383;50.830;7.210;2022-07-04T10:12:27;3.08;;;0.80;;
12635;SDS011;6383;50.830;7.210;2022-07-04T10:14:56;1.95;;;1.05;;
12635;SDS011;6383;50.830;7.210;2022-07-04T10:17:24;3.08;;;1.20;;
12635;SDS011;6383;50.830;7.210;2022-07-04T10:19:52;1.55;;;0.90;;
12635;SDS011;6383;50.830;7.210;2022-07-04T10:22:20;2.05;;;0.80;;
12635;SDS011;6383;50.830;7.210;2022-07-04T10:24:50;3.55;;;1.02;;
12635;SDS011;6383;50.830;7.210;2022-07-04T10:27:18;1.63;;;0.85;;
12635;SDS011;6383;50.830;7.210;2022-07-04T10:29:47;3.75;;;1.20;;
12635;SDS011;6383;50.830;7.210;2022-07-04T10:32:16;3.13;;;0.80;;
12635;SDS011;6383;50.830;7.210;2022-07-04T10:34:44;3.65;;;1.23;;
12635;SDS011;6383;50.830;7.210;2022-07-04T10:37:12;2.33;;;0.90;;
12635;SDS011;6383;50.830;7.210;2022-07-04T10:39:40;1.67;;;0.80;;
12635;SDS011;6383;50.830;7.210;2022-07-04T10:42:08;3.65;;;0.70;;
12635;SDS011;6383;50.830;7.210;2022-07-04T10:44:36;2.67;;;1.08;;
12635;SDS011;6383;50.830;7.210;2022-07-04T10:47:05;1.00;;;0.82;;
12635;SDS011;6383;50.830;7.210;2022-07-04T10:49:34;0.77;;;0.70;;
12635;SDS011;6383;50.830;7.210;2022-07-04T10:52:11;2.38;;;0.80;;
12635;SDS011;6383;50.830;7.210;2022-07-04T10:54:40;2.95;;;0.80;;
12635;SDS011;6383;50.830;7.210;2022-07-04T10:57:13;2.42;;;1.10;;
12635;SDS011;6383;50.830;7.210;2022-07-04T10:59:42;5.15;;;1.00;;
12635;SDS011;6383;50.830;7.210;2022-07-04T11:02:26;3.58;;;0.80;;
12635;SDS011;6383;50.830;7.210;2022-07-04T11:04:57;1.40;;;0.90;;
12635;SDS011;6383;50.830;7.210;2022-07-04T11:10:30;1.48;;;0.63;;
12635;SDS011;6383;50.830;7.210;2022-07-04T11:13:16;0.57;;;0.55;;
12635;SDS011;6383;50.830;7.210;2022-07-04T11:15:57;2.22;;;0.98;;
12635;SDS011;6383;50.830;7.210;2022-07-04T11:18:40;4.57;;;0.93;;
12635;SDS011;6383;50.830;7.210;2022-07-04T11:21:14;4.47;;;0.88;;
12635;SDS011;6383;50.830;7.210;2022-07-04T11:23:52;2.78;;;0.80;;
12635;SDS011;6383;50.830;7.210;2022-07-04T11:26:20;3.50;;;0.85;;
12635;SDS011;6383;50.830;7.210;2022-07-04T11:28:48;2.10;;;1.00;;
12635;SDS011;6383;50.830;7.210;2022-07-04T11:31:16;3.42;;;0.82;;
12635;SDS011;6383;50.830;7.210;2022-07-04T11:33:46;3.33;;;0.60;;
12635;SDS011;6383;50.830;7.210;2022-07-04T11:36:14;3.15;;;1.00;;
12635;SDS011;6383;50.830;7.210;2022-07-04T11:38:47;1.42;;;0.55;;
12635;SDS011;6383;50.830;7.210;2022-07-04T11:41:17;1.40;;;0.68;;
12635;SDS011;6383;50.830;7.210;2022-07-04T11:44:03;1.45;;;0.60;;
12635;SDS011;6383;50.830;7.210;2022-07-04T11:46:51;1.23;;;0.70;;
12635;SDS011;6383;50.830;7.210;2022-07-04T11:49:28;3.03;;;1.30;;
12635;SDS011;6383;50.830;7.210;2022-07-04T11:51:56;2.45;;;0.73;;
12635;SDS011;6383;50.830;7.210;2022-07-04T11:54:25;2.78;;;0.73;;
12635;SDS011;6383;50.830;7.210;2022-07-04T11:56:53;1.15;;;0.47;;
12635;SDS011;6383;50.830;7.210;2022-07-04T11:59:35;1.67;;;0.70;;
12635;SDS011;6383;50.830;7.210;2022-07-04T12:02:09;3.83;;;0.60;;
12635;SDS011;6383;50.830;7.210;2022-07-04T12:04:38;2.42;;;1.38;;
12635;SDS011;6383;50.830;7.210;2022-07-04T12:07:10;3.22;;;1.58;;
12635;SDS011;6383;50.830;7.210;2022-07-04T12:09:39;1.75;;;0.93;;
12635;SDS011;6383;50.830;7.210;2022-07-04T12:12:07;1.40;;;1.10;;
12635;SDS011;6383;50.830;7.210;2022-07-04T12:14:35;1.27;;;0.57;;
12635;SDS011;6383;50.830;7.210;2022-07-04T12:17:10;1.92;;;0.75;;
12635;SDS011;6383;50.830;7.210;2022-07-04T12:19:53;1.70;;;1.00;;
12635;SDS011;6383;50.830;7.210;2022-07-04T12:22:25;3.55;;;0.90;;
12635;SDS011;6383;50.830;7.210;2022-07-04T12:24:58;2.88;;;0.68;;
12635;SDS011;6383;50.830;7.210;2022-07-04T12:27:27;4.28;;;0.80;;
12635;SDS011;6383;50.830;7.210;2022-07-04T12:29:56;2.60;;;1.00;;
12635;SDS011;6383;50.830;7.210;2022-07-04T12:32:48;2.28;;;0.70;;
12635;SDS011;6383;50.830;7.210;2022-07-04T12:35:33;1.90;;;0.65;;
12635;SDS011;6383;50.830;7.210;2022-07-04T12:38:03;4.82;;;1.05;;
12635;SDS011;6383;50.830;7.210;2022-07-04T12:40:32;1.10;;;0.70;;
12635;SDS011;6383;50.830;7.210;2022-07-04T12:43:00;3.53;;;0.80;;
12635;SDS011;6383;50.830;7.210;2022-07-04T12:48:16;0.93;;;0.52;;
12635;SDS011;6383;50.830;7.210;2022-07-04T12:50:48;2.50;;;0.80;;
12635;SDS011;6383;50.830;7.210;2022-07-04T12:53:16;0.93;;;0.60;;
12635;SDS011;6383;50.830;7.210;2022-07-04T12:55:45;1.73;;;0.73;;
12635;SDS011;6383;50.830;7.210;2022-07-04T12:58:14;2.88;;;0.60;;
12635;SDS011;6383;50.830;7.210;2022-07-04T13:00:42;1.77;;;0.65;;
12635;SDS011;6383;50.830;7.210;2022-07-04T13:03:10;1.55;;;1.00;;
12635;SDS011;6383;50.830;7.210;2022-07-04T13:05:38;1.95;;;0.60;;
12635;SDS011;6383;50.830;7.210;2022-07-04T13:08:08;2.22;;;0.88;;
12635;SDS011;6383;50.830;7.210;2022-07-04T13:10:34;3.08;;;0.70;;
12635;SDS011;6383;50.830;7.210;2022-07-04T13:13:04;2.95;;;1.08;;
12635;SDS011;6383;50.830;7.210;2022-07-04T13:15:32;1.95;;;0.70;;
12635;SDS011;6383;50.830;7.210;2022-07-04T13:18:00;3.92;;;1.25;;
12635;SDS011;6383;50.830;7.210;2022-07-04T13:20:28;2.75;;;0.88;;
12635;SDS011;6383;50.830;7.210;2022-07-04T13:22:56;2.83;;;0.80;;
12635;SDS011;6383;50.830;7.210;2022-07-04T13:25:26;2.05;;;0.73;;
12635;SDS011;6383;50.830;7.210;2022-07-04T13:27:52;7.20;;;0.98;;
12635;SDS011;6383;50.830;7.210;2022-07-04T13:30:20;7.35;;;0.90;;
12635;SDS011;6383;50.830;7.210;2022-07-04T13:32:48;4.50;;;0.70;;
12635;SDS011;6383;50.830;7.210;2022-07-04T13:35:16;1.80;;;0.90;;
12635;SDS011;6383;50.830;7.210;2022-07-04T13:37:44;2.42;;;1.00;;
12635;SDS011;6383;50.830;7.210;2022-07-04T13:40:12;3.05;;;0.80;;
12635;SDS011;6383;50.830;7.210;2022-07-04T13:42:42;1.17;;;0.80;;
12635;SDS011;6383;50.830;7.210;2022-07-04T13:45:24;2.87;;;1.27;;
12635;SDS011;6383;50.830;7.210;2022-07-04T13:47:53;2.00;;;0.70;;
12635;SDS011;6383;50.830;7.210;2022-07-04T13:50:21;1.60;;;0.80;;
12635;SDS011;6383;50.830;7.210;2022-07-04T13:52:48;8.02;;;0.90;;
12635;SDS011;6383;50.830;7.210;2022-07-04T13:55:16;6.60;;;1.00;;
12635;SDS011;6383;50.830;7.210;2022-07-04T13:57:46;2.85;;;0.70;;
12635;SDS011;6383;50.830;7.210;2022-07-04T14:00:15;3.08;;;1.33;;
12635;SDS011;6383;50.830;7.210;2022-07-04T14:02:42;1.80;;;0.70;;
12635;SDS011;6383;50.830;7.210;2022-07-04T14:05:10;3.10;;;0.80;;
12635;SDS011;6383;50.830;7.210;2022-07-04T14:07:38;1.50;;;0.65;;
12635;SDS011;6383;50.830;7.210;2022-07-04T14:10:06;1.20;;;0.77;;
12635;SDS011;6383;50.830;7.210;2022-07-04T14:12:34;1.25;;;0.63;;
12635;SDS011;6383;50.830;7.210;2022-07-04T14:15:04;8.07;;;1.25;;
12635;SDS011;6383;50.830;7.210;2022-07-04T14:17:32;3.60;;;1.40;;
12635;SDS011;6383;50.830;7.210;2022-07-04T14:20:01;2.58;;;0.73;;
12635;SDS011;6383;50.830;7.210;2022-07-04T14:22:28;3.55;;;0.98;;
12635;SDS011;6383;50.830;7.210;2022-07-04T14:27:24;4.68;;;1.00;;
12635;SDS011;6383;50.830;7.210;2022-07-04T14:29:52;9.70;;;1.08;;
12635;SDS011;6383;50.830;7.210;2022-07-04T14:32:22;3.15;;;1.02;;
12635;SDS011;6383;50.830;7.210;2022-07-04T14:34:50;3.72;;;0.80;;
12635;SDS011;6383;50.830;7.210;2022-07-04T14:37:18;1.98;;;1.08;;
12635;SDS011;6383;50.830;7.210;2022-07-04T14:39:46;3.03;;;1.00;;
12635;SDS011;6383;50.830;7.210;2022-07-04T14:42:14;1.58;;;0.63;;
12635;SDS011;6383;50.830;7.210;2022-07-04T14:44:43;1.45;;;0.90;;
12635;SDS011;6383;50.830;7.210;2022-07-04T14:47:10;3.35;;;1.20;;
12635;SDS011;6383;50.830;7.210;2022-07-04T14:49:40;1.65;;;1.08;;
12635;SDS011;6383;50.830;7.210;2022-07-04T14:52:08;2.47;;;1.00;;
12635;SDS011;6383;50.830;7.210;2022-07-04T14:54:36;2.70;;;1.27;;
12635;SDS011;6383;50.830;7.210;2022-07-04T14:57:04;1.17;;;0.60;;
12635;SDS011;6383;50.830;7.210;2022-07-04T14:59:32;0.95;;;0.65;;
12635;SDS011;6383;50.830;7.210;2022-07-04T15:02:03;4.85;;;0.88;;
12635;SDS011;6383;50.830;7.210;2022-07-04T15:04:30;2.30;;;0.77;;
12635;SDS011;6383;50.830;7.210;2022-07-04T15:07:00;2.00;;;0.90;;
12635;SDS011;6383;50.830;7.210;2022-07-04T15:09:28;2.30;;;1.40;;
12635;SDS011;6383;50.830;7.210;2022-07-04T15:11:56;0.98;;;0.60;;
12635;SDS011;6383;50.830;7.210;2022-07-04T15:14:24;1.65;;;0.55;;
12635;SDS011;6383;50.830;7.210;2022-07-04T15:16:52;1.67;;;0.73;;
12635;SDS011;6383;50.830;7.210;2022-07-04T15:19:20;2.40;;;1.00;;
12635;SDS011;6383;50.830;7.210;2022-07-04T15:21:48;1.73;;;0.88;;
12635;SDS011;6383;50.830;7.210;2022-07-04T15:24:36;5.07;;;1.13;;